sensor_id;sensor_type;location;lat;lon;timestamp;pressure;altitude;pressure_sealevel;temperature;humidity
22181;BME280;11256;50.830;12.834;2024-02-26T00:03:29;96242.75;;;6.19;55.51
22181;BME280;11256;50.830;12.834;2024-02-26T00:08:29;96224.69;;;6.01;55.42
22181;BME280;11256;50.830;12.834;2024-02-26T00:13:30;96240.75;;;6.06;55.42
22181;BME280;11256;50.830;12.834;2024-02-26T00:18:30;96231.16;;;6.00;55.78
22181;BME280;11256;50.830;12.834;2024-02-26T00:23:31;96203.44;;;5.81;55.70
22181;BME280;11256;50.830;12.834;2024-02-26T00:28:31;96224.88;;;5.86;55.87
22181;BME280;11256;50.830;12.834;2024-02-26T00:33:31;96205.56;;;5.79;56.22
22181;BME280;11256;50.830;12.834;2024-02-26T00:38:32;96205.13;;;5.72;55.98
22181;BME280;11256;50.830;12.834;2024-02-26T00:43:32;96203.28;;;5.67;56.15
22181;BME280;11256;50.830;12.834;2024-02-26T00:48:33;96207.38;;;5.60;56.16
22181;BME280;11256;50.830;12.834;2024-02-26T00:53:33;96208.53;;;5.54;56.21
22181;BME280;11256;50.830;12.834;2024-02-26T00:58:34;96182.09;;;5.42;56.04
22181;BME280;11256;50.830;12.834;2024-02-26T01:03:34;96192.00;;;5.42;56.39
22181;BME280;11256;50.830;12.834;2024-02-26T01:08:35;96191.50;;;5.40;56.92
22181;BME280;11256;50.830;12.834;2024-02-26T01:13:35;96187.28;;;5.34;56.95
22181;BME280;11256;50.830;12.834;2024-02-26T01:18:36;96171.78;;;5.26;56.38
22181;BME280;11256;50.830;12.834;2024-02-26T01:23:36;96173.41;;;5.22;56.65
22181;BME280;11256;50.830;12.834;2024-02-26T01:28:36;96142.44;;;5.06;57.13
22181;BME280;11256;50.830;12.834;2024-02-26T01:33:37;96153.66;;;5.13;56.75
22181;BME280;11256;50.830;12.834;2024-02-26T01:38:37;96149.44;;;5.07;56.65
22181;BME280;11256;50.830;12.834;2024-02-26T01:43:38;96143.78;;;5.03;56.94
22181;BME280;11256;50.830;12.834;2024-02-26T01:48:38;96139.56;;;4.97;56.83
22181;BME280;11256;50.830;12.834;2024-02-26T01:53:39;96139.34;;;4.94;57.08
22181;BME280;11256;50.830;12.834;2024-02-26T01:58:39;96122.53;;;4.83;57.24
22181;BME280;11256;50.830;12.834;2024-02-26T02:03:39;96126.53;;;4.86;57.18
22181;BME280;11256;50.830;12.834;2024-02-26T02:08:42;96137.31;;;4.81;57.08
22181;BME280;11256;50.830;12.834;2024-02-26T02:13:43;96124.72;;;4.76;57.53
22181;BME280;11256;50.830;12.834;2024-02-26T02:18:43;96130.94;;;4.72;57.40
22181;BME280;11256;50.830;12.834;2024-02-26T02:23:44;96129.44;;;4.61;57.39
22181;BME280;11256;50.830;12.834;2024-02-26T02:28:47;96135.84;;;4.65;57.50
22181;BME280;11256;50.830;12.834;2024-02-26T02:33:48;96134.81;;;4.61;57.54
22181;BME280;11256;50.830;12.834;2024-02-26T02:38:50;96132.69;;;4.58;57.60
22181;BME280;11256;50.830;12.834;2024-02-26T02:43:51;96140.47;;;4.54;57.71
22181;BME280;11256;50.830;12.834;2024-02-26T02:48:52;96137.06;;;4.49;57.86
22181;BME280;11256;50.830;12.834;2024-02-26T02:53:52;96123.22;;;4.37;57.81
22181;BME280;11256;50.830;12.834;2024-02-26T02:58:52;96139.78;;;4.44;58.04
22181;BME280;11256;50.830;12.834;2024-02-26T03:03:53;96142.47;;;4.39;57.93
22181;BME280;11256;50.830;12.834;2024-02-26T03:08:54;96143.06;;;4.36;57.93
22181;BME280;11256;50.830;12.834;2024-02-26T03:13:55;96155.13;;;4.33;58.41
22181;BME280;11256;50.830;12.834;2024-02-26T03:18:55;96150.31;;;4.30;58.07
22181;BME280;11256;50.830;12.834;2024-02-26T03:23:55;96143.91;;;4.26;58.19
22181;BME280;11256;50.830;12.834;2024-02-26T03:28:57;96138.31;;;4.23;58.34
22181;BME280;11256;50.830;12.834;2024-02-26T03:33:57;96142.06;;;4.22;58.47
22181;BME280;11256;50.830;12.834;2024-02-26T03:38:58;96144.78;;;4.17;58.10
22181;BME280;11256;50.830;12.834;2024-02-26T03:43:59;96148.03;;;4.14;58.34
22181;BME280;11256;50.830;12.834;2024-02-26T03:48:59;96132.53;;;4.06;58.27
22181;BME280;11256;50.830;12.834;2024-02-26T03:54:00;96150.19;;;4.07;58.49
22181;BME280;11256;50.830;12.834;2024-02-26T03:59:01;96137.66;;;4.02;58.53
22181;BME280;11256;50.830;12.834;2024-02-26T04:04:02;96129.38;;;3.94;58.78
22181;BME280;11256;50.830;12.834;2024-02-26T04:09:03;96140.59;;;4.01;58.86
22181;BME280;11256;50.830;12.834;2024-02-26T04:14:04;96129.66;;;3.92;58.68
22181;BME280;11256;50.830;12.834;2024-02-26T04:19:06;96138.50;;;3.93;58.64
22181;BME280;11256;50.830;12.834;2024-02-26T04:24:07;96134.78;;;3.89;58.65
22181;BME280;11256;50.830;12.834;2024-02-26T04:29:07;96139.63;;;3.87;58.54
22181;BME280;11256;50.830;12.834;2024-02-26T04:34:08;96135.38;;;3.76;58.96
22181;BME280;11256;50.830;12.834;2024-02-26T04:39:08;96151.94;;;3.83;58.70
22181;BME280;11256;50.830;12.834;2024-02-26T04:44:10;96160.53;;;3.80;59.21
22181;BME280;11256;50.830;12.834;2024-02-26T04:49:10;96156.53;;;3.77;58.99
22181;BME280;11256;50.830;12.834;2024-02-26T04:54:10;96155.75;;;3.77;59.19
22181;BME280;11256;50.830;12.834;2024-02-26T04:59:11;96159.50;;;3.76;58.88
22181;BME280;11256;50.830;12.834;2024-02-26T05:04:11;96159.22;;;3.72;59.13
22181;BME280;11256;50.830;12.834;2024-02-26T05:09:12;96158.19;;;3.68;59.25
22181;BME280;11256;50.830;12.834;2024-02-26T05:14:12;96168.09;;;3.68;59.29
22181;BME280;11256;50.830;12.834;2024-02-26T05:19:13;96164.06;;;3.65;59.67
22181;BME280;11256;50.830;12.834;2024-02-26T05:24:13;96154.19;;;3.61;59.57
22181;BME280;11256;50.830;12.834;2024-02-26T05:29:15;96150.47;;;3.52;59.74
22181;BME280;11256;50.830;12.834;2024-02-26T05:34:16;96156.09;;;3.50;59.87
22181;BME280;11256;50.830;12.834;2024-02-26T05:39:17;96172.97;;;3.56;59.67
22181;BME280;11256;50.830;12.834;2024-02-26T05:44:17;96178.84;;;3.53;59.97
22181;BME280;11256;50.830;12.834;2024-02-26T05:49:18;96176.72;;;3.50;60.04
22181;BME280;11256;50.830;12.834;2024-02-26T05:54:18;96170.56;;;3.44;59.56
22181;BME280;11256;50.830;12.834;2024-02-26T05:59:19;96181.03;;;3.41;60.05
22181;BME280;11256;50.830;12.834;2024-02-26T06:04:19;96166.31;;;3.38;59.88
22181;BME280;11256;50.830;12.834;2024-02-26T06:09:20;96162.31;;;3.31;59.85
22181;BME280;11256;50.830;12.834;2024-02-26T06:14:20;96173.56;;;3.38;60.10
22181;BME280;11256;50.830;12.834;2024-02-26T06:19:20;96161.00;;;3.28;60.03
22181;BME280;11256;50.830;12.834;2024-02-26T06:24:21;96166.06;;;3.30;60.11
22181;BME280;11256;50.830;12.834;2024-02-26T06:29:22;96178.91;;;3.38;60.16
22181;BME280;11256;50.830;12.834;2024-02-26T06:34:22;96162.84;;;3.38;60.17
22181;BME280;11256;50.830;12.834;2024-02-26T06:39:23;96176.13;;;3.63;60.30
22181;BME280;11256;50.830;12.834;2024-02-26T06:44:23;96161.28;;;3.95;61.45
22181;BME280;11256;50.830;12.834;2024-02-26T06:49:23;96166.94;;;4.27;61.14
22181;BME280;11256;50.830;12.834;2024-02-26T06:54:24;96198.69;;;4.54;61.48
22181;BME280;11256;50.830;12.834;2024-02-26T06:59:24;96183.66;;;4.58;61.51
22181;BME280;11256;50.830;12.834;2024-02-26T07:04:25;96199.81;;;4.81;61.69
22181;BME280;11256;50.830;12.834;2024-02-26T07:09:25;96207.84;;;5.15;62.83
22181;BME280;11256;50.830;12.834;2024-02-26T07:14:25;96205.34;;;5.52;63.66
22181;BME280;11256;50.830;12.834;2024-02-26T07:19:26;96205.34;;;5.99;64.21
22181;BME280;11256;50.830;12.834;2024-02-26T07:24:27;96221.69;;;6.81;65.85
22181;BME280;11256;50.830;12.834;2024-02-26T07:29:27;96205.69;;;8.08;67.09
22181;BME280;11256;50.830;12.834;2024-02-26T07:34:28;96206.78;;;9.57;66.35
22181;BME280;11256;50.830;12.834;2024-02-26T07:39:29;96217.38;;;11.05;65.40
22181;BME280;11256;50.830;12.834;2024-02-26T07:44:29;96213.72;;;12.06;62.62
22181;BME280;11256;50.830;12.834;2024-02-26T07:49:29;96228.22;;;12.97;60.86
22181;BME280;11256;50.830;12.834;2024-02-26T07:54:30;96221.81;;;13.55;58.89
22181;BME280;11256;50.830;12.834;2024-02-26T07:59:31;96216.06;;;14.13;57.30
22181;BME280;11256;50.830;12.834;2024-02-26T08:04:31;96221.22;;;14.74;55.93
22181;BME280;11256;50.830;12.834;2024-02-26T08:09:32;96236.25;;;15.59;54.12
22181;BME280;11256;50.830;12.834;2024-02-26T08:14:32;96232.53;;;15.95;52.78
22181;BME280;11256;50.830;12.834;2024-02-26T08:19:33;96236.31;;;16.49;52.29
22181;BME280;11256;50.830;12.834;2024-02-26T08:24:35;96237.75;;;17.43;51.69
22181;BME280;11256;50.830;12.834;2024-02-26T08:29:36;96243.28;;;18.03;50.42
22181;BME280;11256;50.830;12.834;2024-02-26T08:34:36;96242.16;;;18.72;48.65
22181;BME280;11256;50.830;12.834;2024-02-26T08:39:37;96244.88;;;19.46;47.65
22181;BME280;11256;50.830;12.834;2024-02-26T08:44:38;96245.28;;;19.78;46.03
22181;BME280;11256;50.830;12.834;2024-02-26T08:49:42;96246.28;;;20.29;45.64
22181;BME280;11256;50.830;12.834;2024-02-26T08:54:43;96237.47;;;20.53;44.05
22181;BME280;11256;50.830;12.834;2024-02-26T08:59:44;96231.22;;;20.56;43.86
22181;BME280;11256;50.830;12.834;2024-02-26T09:04:44;96243.13;;;20.27;43.17
22181;BME280;11256;50.830;12.834;2024-02-26T09:09:45;96232.88;;;20.24;43.95
22181;BME280;11256;50.830;12.834;2024-02-26T09:14:45;96240.31;;;20.63;43.21
22181;BME280;11256;50.830;12.834;2024-02-26T09:19:46;96235.72;;;20.78;43.13
22181;BME280;11256;50.830;12.834;2024-02-26T09:24:46;96236.06;;;21.16;41.41
22181;BME280;11256;50.830;12.834;2024-02-26T09:29:46;96240.41;;;21.21;38.25
22181;BME280;11256;50.830;12.834;2024-02-26T09:34:47;96242.09;;;21.39;40.07
22181;BME280;11256;50.830;12.834;2024-02-26T09:39:47;96243.91;;;21.18;39.70
22181;BME280;11256;50.830;12.834;2024-02-26T09:44:49;96250.25;;;21.25;39.57
22181;BME280;11256;50.830;12.834;2024-02-26T09:49:52;96262.56;;;20.88;37.33
22181;BME280;11256;50.830;12.834;2024-02-26T09:54:53;96273.94;;;20.83;37.87
22181;BME280;11256;50.830;12.834;2024-02-26T09:59:54;96268.66;;;20.27;37.87
22181;BME280;11256;50.830;12.834;2024-02-26T10:05:01;96253.44;;;20.04;39.03
22181;BME280;11256;50.830;12.834;2024-02-26T10:10:05;96257.31;;;19.37;39.19
22181;BME280;11256;50.830;12.834;2024-02-26T10:15:06;96262.22;;;18.76;40.01
22181;BME280;11256;50.830;12.834;2024-02-26T10:20:11;96261.09;;;17.75;39.65
22181;BME280;11256;50.830;12.834;2024-02-26T10:25:12;96268.50;;;17.21;40.63
22181;BME280;11256;50.830;12.834;2024-02-26T10:30:16;96275.13;;;16.85;42.43
22181;BME280;11256;50.830;12.834;2024-02-26T10:35:20;96285.06;;;16.31;42.25
22181;BME280;11256;50.830;12.834;2024-02-26T10:40:20;96284.22;;;16.00;43.12
22181;BME280;11256;50.830;12.834;2024-02-26T10:45:21;96273.41;;;15.76;44.17
22181;BME280;11256;50.830;12.834;2024-02-26T10:50:21;96270.69;;;15.36;44.26
22181;BME280;11256;50.830;12.834;2024-02-26T10:55:22;96261.28;;;15.10;44.95
22181;BME280;11256;50.830;12.834;2024-02-26T11:00:22;96274.50;;;14.60;45.11
22181;BME280;11256;50.830;12.834;2024-02-26T11:05:23;96270.41;;;14.54;45.56
22181;BME280;11256;50.830;12.834;2024-02-26T11:10:25;96275.41;;;14.40;45.64
22181;BME280;11256;50.830;12.834;2024-02-26T11:15:28;96273.34;;;14.37;46.10
22181;BME280;11256;50.830;12.834;2024-02-26T11:20:29;96269.25;;;14.31;46.09
22181;BME280;11256;50.830;12.834;2024-02-26T11:25:31;96255.16;;;14.29;45.98
22181;BME280;11256;50.830;12.834;2024-02-26T11:30:34;96259.66;;;14.13;47.01
22181;BME280;11256;50.830;12.834;2024-02-26T11:35:38;96259.66;;;14.13;47.46
22181;BME280;11256;50.830;12.834;2024-02-26T11:40:39;96260.09;;;14.15;47.69
22181;BME280;11256;50.830;12.834;2024-02-26T11:50:52;96261.69;;;14.16;48.44
22181;BME280;11256;50.830;12.834;2024-02-26T12:06:42;96263.97;;;14.14;48.35
22181;BME280;11256;50.830;12.834;2024-02-26T12:11:43;96270.16;;;14.02;48.45
22181;BME280;11256;50.830;12.834;2024-02-26T12:16:43;96249.38;;;13.86;48.77
22181;BME280;11256;50.830;12.834;2024-02-26T12:21:51;96279.91;;;13.91;49.21
22181;BME280;11256;50.830;12.834;2024-02-26T12:26:51;96273.03;;;13.73;49.67
22181;BME280;11256;50.830;12.834;2024-02-26T12:31:52;96277.91;;;13.68;49.49
22181;BME280;11256;50.830;12.834;2024-02-26T12:36:53;96281.56;;;13.51;49.87
22181;BME280;11256;50.830;12.834;2024-02-26T12:41:57;96279.59;;;13.40;50.47
22181;BME280;11256;50.830;12.834;2024-02-26T12:47:03;96290.47;;;13.40;50.73
22181;BME280;11256;50.830;12.834;2024-02-26T12:52:04;96291.78;;;13.34;50.63
22181;BME280;11256;50.830;12.834;2024-02-26T12:57:06;96288.63;;;13.32;50.73
22181;BME280;11256;50.830;12.834;2024-02-26T13:02:08;96297.91;;;13.31;50.82
22181;BME280;11256;50.830;12.834;2024-02-26T13:07:09;96309.31;;;13.24;51.14
22181;BME280;11256;50.830;12.834;2024-02-26T13:12:09;96319.13;;;13.17;51.12
22181;BME280;11256;50.830;12.834;2024-02-26T13:17:10;96326.00;;;13.14;50.42
22181;BME280;11256;50.830;12.834;2024-02-26T13:22:10;96342.19;;;13.11;50.65
22181;BME280;11256;50.830;12.834;2024-02-26T13:27:11;96341.41;;;13.10;51.11
22181;BME280;11256;50.830;12.834;2024-02-26T13:32:11;96339.03;;;13.09;51.15
22181;BME280;11256;50.830;12.834;2024-02-26T13:37:12;96339.66;;;13.06;51.79
22181;BME280;11256;50.830;12.834;2024-02-26T13:42:13;96340.69;;;12.93;52.07
22181;BME280;11256;50.830;12.834;2024-02-26T13:47:13;96352.34;;;12.93;51.74
22181;BME280;11256;50.830;12.834;2024-02-26T13:52:14;96361.47;;;12.89;51.65
22181;BME280;11256;50.830;12.834;2024-02-26T13:57:15;96374.75;;;12.90;51.73
22181;BME280;11256;50.830;12.834;2024-02-26T14:02:15;96386.56;;;13.03;53.66
22181;BME280;11256;50.830;12.834;2024-02-26T14:07:15;96383.19;;;13.06;52.44
22181;BME280;11256;50.830;12.834;2024-02-26T14:12:19;96392.28;;;13.10;55.44
22181;BME280;11256;50.830;12.834;2024-02-26T14:17:19;96405.25;;;13.13;53.70
22181;BME280;11256;50.830;12.834;2024-02-26T14:22:20;96395.00;;;13.10;52.29
22181;BME280;11256;50.830;12.834;2024-02-26T14:27:20;96401.75;;;13.04;52.22
22181;BME280;11256;50.830;12.834;2024-02-26T14:32:22;96396.13;;;13.09;54.50
22181;BME280;11256;50.830;12.834;2024-02-26T14:37:22;96403.34;;;13.05;52.23
22181;BME280;11256;50.830;12.834;2024-02-26T14:42:23;96403.06;;;12.98;53.78
22181;BME280;11256;50.830;12.834;2024-02-26T14:47:24;96412.50;;;13.00;53.35
22181;BME280;11256;50.830;12.834;2024-02-26T14:52:24;96407.38;;;12.90;52.75
22181;BME280;11256;50.830;12.834;2024-02-26T14:57:25;96410.00;;;12.78;52.40
22181;BME280;11256;50.830;12.834;2024-02-26T15:02:25;96407.59;;;12.77;53.09
22181;BME280;11256;50.830;12.834;2024-02-26T15:07:25;96419.47;;;12.64;53.15
22181;BME280;11256;50.830;12.834;2024-02-26T15:12:26;96411.19;;;12.52;53.16
22181;BME280;11256;50.830;12.834;2024-02-26T15:17:32;96414.69;;;12.61;55.73
22181;BME280;11256;50.830;12.834;2024-02-26T15:22:36;96427.16;;;12.62;53.90
22181;BME280;11256;50.830;12.834;2024-02-26T15:27:36;96415.75;;;12.77;56.54
22181;BME280;11256;50.830;12.834;2024-02-26T15:32:37;96417.56;;;12.56;54.63
22181;BME280;11256;50.830;12.834;2024-02-26T15:37:38;96434.34;;;12.66;55.05
22181;BME280;11256;50.830;12.834;2024-02-26T15:42:38;96427.66;;;12.47;54.22
22181;BME280;11256;50.830;12.834;2024-02-26T15:47:41;96452.72;;;12.61;57.30
22181;BME280;11256;50.830;12.834;2024-02-26T15:52:42;96452.25;;;12.59;57.84
22181;BME280;11256;50.830;12.834;2024-02-26T15:57:42;96456.09;;;12.66;59.83
22181;BME280;11256;50.830;12.834;2024-02-26T16:02:43;96474.34;;;12.49;56.31
22181;BME280;11256;50.830;12.834;2024-02-26T16:07:51;96485.38;;;12.35;57.63
22181;BME280;11256;50.830;12.834;2024-02-26T16:12:53;96499.13;;;12.39;58.00
22181;BME280;11256;50.830;12.834;2024-02-26T16:17:55;96500.72;;;12.31;58.79
22181;BME280;11256;50.830;12.834;2024-02-26T16:22:58;96512.56;;;12.27;58.09
22181;BME280;11256;50.830;12.834;2024-02-26T16:28:02;96520.19;;;12.08;56.65
22181;BME280;11256;50.830;12.834;2024-02-26T16:33:02;96531.88;;;12.08;58.50
22181;BME280;11256;50.830;12.834;2024-02-26T16:38:03;96534.41;;;11.96;58.80
22181;BME280;11256;50.830;12.834;2024-02-26T16:43:03;96530.06;;;11.87;58.51
22181;BME280;11256;50.830;12.834;2024-02-26T16:48:06;96550.34;;;11.89;58.79
22181;BME280;11256;50.830;12.834;2024-02-26T16:53:07;96554.31;;;11.75;57.13
22181;BME280;11256;50.830;12.834;2024-02-26T16:58:08;96555.72;;;11.64;57.33
22181;BME280;11256;50.830;12.834;2024-02-26T17:03:08;96571.16;;;11.55;58.17
22181;BME280;11256;50.830;12.834;2024-02-26T17:08:09;96576.22;;;11.48;58.51
22181;BME280;11256;50.830;12.834;2024-02-26T17:13:10;96581.78;;;11.43;58.58
22181;BME280;11256;50.830;12.834;2024-02-26T17:18:12;96595.97;;;11.40;58.69
22181;BME280;11256;50.830;12.834;2024-02-26T17:23:16;96604.25;;;11.35;58.47
22181;BME280;11256;50.830;12.834;2024-02-26T17:28:17;96592.66;;;11.21;58.38
22181;BME280;11256;50.830;12.834;2024-02-26T17:33:18;96613.13;;;11.27;58.60
22181;BME280;11256;50.830;12.834;2024-02-26T17:38:19;96611.19;;;11.19;58.29
22181;BME280;11256;50.830;12.834;2024-02-26T17:43:19;96616.25;;;11.12;58.44
22181;BME280;11256;50.830;12.834;2024-02-26T17:48:21;96623.50;;;11.03;58.14
22181;BME280;11256;50.830;12.834;2024-02-26T17:53:21;96612.25;;;10.87;58.06
22181;BME280;11256;50.830;12.834;2024-02-26T17:58:22;96621.91;;;10.80;58.30
22181;BME280;11256;50.830;12.834;2024-02-26T18:03:23;96637.06;;;10.81;58.29
22181;BME280;11256;50.830;12.834;2024-02-26T18:08:23;96638.91;;;10.72;58.47
22181;BME280;11256;50.830;12.834;2024-02-26T18:13:23;96642.34;;;10.64;58.40
22181;BME280;11256;50.830;12.834;2024-02-26T18:18:24;96663.66;;;10.57;58.02
22181;BME280;11256;50.830;12.834;2024-02-26T18:23:25;96651.94;;;10.48;58.30
22181;BME280;11256;50.830;12.834;2024-02-26T18:28:25;96649.44;;;10.38;58.25
22181;BME280;11256;50.830;12.834;2024-02-26T18:33:26;96658.28;;;10.30;58.17
22181;BME280;11256;50.830;12.834;2024-02-26T18:38:26;96663.28;;;10.23;58.19
22181;BME280;11256;50.830;12.834;2024-02-26T18:43:27;96659.31;;;10.07;58.20
22181;BME280;11256;50.830;12.834;2024-02-26T18:48:27;96682.88;;;10.06;58.13
22181;BME280;11256;50.830;12.834;2024-02-26T18:53:27;96686.56;;;9.97;58.47
22181;BME280;11256;50.830;12.834;2024-02-26T18:58:28;96695.38;;;9.89;58.18
22181;BME280;11256;50.830;12.834;2024-02-26T19:03:29;96698.78;;;9.81;58.40
22181;BME280;11256;50.830;12.834;2024-02-26T19:08:30;96680.72;;;9.63;58.33
22181;BME280;11256;50.830;12.834;2024-02-26T19:13:30;96703.44;;;9.62;58.31
22181;BME280;11256;50.830;12.834;2024-02-26T19:18:32;96715.75;;;9.54;58.38
22181;BME280;11256;50.830;12.834;2024-02-26T19:23:32;96711.84;;;9.47;58.44
22181;BME280;11256;50.830;12.834;2024-02-26T19:28:34;96727.16;;;9.38;58.42
22181;BME280;11256;50.830;12.834;2024-02-26T19:33:34;96733.50;;;9.28;58.58
22181;BME280;11256;50.830;12.834;2024-02-26T19:38:35;96731.78;;;9.19;58.30
22181;BME280;11256;50.830;12.834;2024-02-26T19:43:35;96737.88;;;9.11;58.49
22181;BME280;11256;50.830;12.834;2024-02-26T19:48:35;96746.63;;;9.03;58.39
22181;BME280;11256;50.830;12.834;2024-02-26T19:53:37;96755.41;;;8.95;58.49
22181;BME280;11256;50.830;12.834;2024-02-26T19:58:38;96756.94;;;8.82;58.57
22181;BME280;11256;50.830;12.834;2024-02-26T20:03:38;96767.31;;;8.75;58.54
22181;BME280;11256;50.830;12.834;2024-02-26T20:08:39;96764.44;;;8.67;58.67
22181;BME280;11256;50.830;12.834;2024-02-26T20:13:39;96769.69;;;8.58;58.70
22181;BME280;11256;50.830;12.834;2024-02-26T20:18:42;96776.53;;;8.51;58.75
22181;BME280;11256;50.830;12.834;2024-02-26T20:23:42;96781.47;;;8.44;58.54
22181;BME280;11256;50.830;12.834;2024-02-26T20:28:43;96780.25;;;8.36;58.84
22181;BME280;11256;50.830;12.834;2024-02-26T20:33:43;96793.56;;;8.28;58.85
22181;BME280;11256;50.830;12.834;2024-02-26T20:38:44;96781.53;;;8.15;58.88
22181;BME280;11256;50.830;12.834;2024-02-26T20:43:44;96795.31;;;8.14;58.79
22181;BME280;11256;50.830;12.834;2024-02-26T20:48:45;96807.75;;;8.10;59.03
22181;BME280;11256;50.830;12.834;2024-02-26T20:53:45;96804.09;;;8.01;58.74
22181;BME280;11256;50.830;12.834;2024-02-26T20:58:47;96816.00;;;7.95;59.08
22181;BME280;11256;50.830;12.834;2024-02-26T21:03:47;96824.16;;;7.90;58.81
22181;BME280;11256;50.830;12.834;2024-02-26T21:08:48;96823.16;;;7.81;58.90
22181;BME280;11256;50.830;12.834;2024-02-26T21:13:48;96819.19;;;7.73;59.35
22181;BME280;11256;50.830;12.834;2024-02-26T21:18:48;96836.72;;;7.71;59.11
22181;BME280;11256;50.830;12.834;2024-02-26T21:23:50;96844.06;;;7.65;58.92
22181;BME280;11256;50.830;12.834;2024-02-26T21:28:51;96837.38;;;7.58;58.96
22181;BME280;11256;50.830;12.834;2024-02-26T21:33:51;96838.50;;;7.52;59.36
22181;BME280;11256;50.830;12.834;2024-02-26T21:38:52;96846.63;;;7.47;59.04
22181;BME280;11256;50.830;12.834;2024-02-26T21:43:52;96855.88;;;7.36;59.34
22181;BME280;11256;50.830;12.834;2024-02-26T21:48:54;96868.81;;;7.34;59.34
22181;BME280;11256;50.830;12.834;2024-02-26T21:53:54;96874.53;;;7.27;59.38
22181;BME280;11256;50.830;12.834;2024-02-26T21:58:54;96861.94;;;7.13;59.59
22181;BME280;11256;50.830;12.834;2024-02-26T22:03:55;96863.59;;;7.09;58.92
22181;BME280;11256;50.830;12.834;2024-02-26T22:08:55;96874.34;;;7.14;59.27
22181;BME280;11256;50.830;12.834;2024-02-26T22:13:56;96862.28;;;7.01;59.48
22181;BME280;11256;50.830;12.834;2024-02-26T22:19:01;96879.22;;;7.07;59.11
22181;BME280;11256;50.830;12.834;2024-02-26T22:24:02;96883.84;;;7.01;59.55
22181;BME280;11256;50.830;12.834;2024-02-26T22:29:02;96887.34;;;6.97;59.48
22181;BME280;11256;50.830;12.834;2024-02-26T22:34:03;96903.78;;;6.95;59.66
22181;BME280;11256;50.830;12.834;2024-02-26T22:39:04;96902.97;;;6.95;60.12
22181;BME280;11256;50.830;12.834;2024-02-26T22:44:04;96903.53;;;6.92;59.71
22181;BME280;11256;50.830;12.834;2024-02-26T22:49:06;96908.66;;;6.88;59.84
22181;BME280;11256;50.830;12.834;2024-02-26T22:54:06;96903.06;;;6.75;59.56
22181;BME280;11256;50.830;12.834;2024-02-26T22:59:07;96928.34;;;6.84;59.74
22181;BME280;11256;50.830;12.834;2024-02-26T23:04:07;96911.69;;;6.72;60.35
22181;BME280;11256;50.830;12.834;2024-02-26T23:09:09;96927.28;;;6.80;60.02
22181;BME280;11256;50.830;12.834;2024-02-26T23:14:09;96940.22;;;6.78;59.80
22181;BME280;11256;50.830;12.834;2024-02-26T23:19:10;96940.22;;;6.78;60.17
22181;BME280;11256;50.830;12.834;2024-02-26T23:24:10;96930.28;;;6.68;59.88
22181;BME280;11256;50.830;12.834;2024-02-26T23:29:11;96951.50;;;6.75;60.29
22181;BME280;11256;50.830;12.834;2024-02-26T23:34:12;96949.13;;;6.73;60.20
22181;BME280;11256;50.830;12.834;2024-02-26T23:39:12;96934.31;;;6.71;60.00
22181;BME280;11256;50.830;12.834;2024-02-26T23:44:13;96941.84;;;6.69;60.48
22181;BME280;11256;50.830;12.834;2024-02-26T23:49:13;96956.13;;;6.69;60.10
22181;BME280;11256;50.830;12.834;2024-02-26T23:54:13;96939.75;;;6.51;60.20
22181;BME280;11256;50.830;12.834;2024-02-26T23:59:14;96944.84;;;6.57;60.49
